createdAt,value
2022-12-05T00:00:28.812Z,2.34
2022-12-05T00:05:25.380Z,2.36
2022-12-05T00:10:16.406Z,2.34
2022-12-05T00:15:17.333Z,2.37
2022-12-05T00:20:09.869Z,2.34
2022-12-05T00:25:01.105Z,2.39
2022-12-05T00:29:54.886Z,2.26
2022-12-05T00:34:49.021Z,2.33
2022-12-05T00:39:40.317Z,2.38
2022-12-05T00:44:31.336Z,2.31
2022-12-05T00:49:24.542Z,2.42
2022-12-05T00:54:19.544Z,2.44
2022-12-05T00:59:13.452Z,2.44
2022-12-05T01:04:07.842Z,2.44
2022-12-05T01:09:11.985Z,2.50
2022-12-05T01:14:06.616Z,2.54
2022-12-05T01:19:00.609Z,2.58
2022-12-05T01:23:52.111Z,2.48
2022-12-05T01:28:44.220Z,2.59
2022-12-05T01:33:39.900Z,2.61
2022-12-05T01:38:34.679Z,2.61
2022-12-05T01:43:26.084Z,2.66
2022-12-05T01:48:25.351Z,2.73
2022-12-05T01:53:22.839Z,2.66
2022-12-05T01:58:14.614Z,2.75
2022-12-05T02:03:11.562Z,2.82
2022-12-05T02:08:07.780Z,2.81
2022-12-05T02:13:08.296Z,2.87
2022-12-05T02:18:09.840Z,2.89
2022-12-05T02:23:22.702Z,2.90
2022-12-05T02:28:38.016Z,2.91
2022-12-05T02:33:39.237Z,2.89
2022-12-05T02:38:35.059Z,2.95
2022-12-05T02:43:41.055Z,3.00
2022-12-05T02:48:37.678Z,3.02
2022-12-05T02:53:31.489Z,3.03
2022-12-05T02:58:29.147Z,3.06
2022-12-05T03:03:25.188Z,3.05
2022-12-05T03:08:25.643Z,3.03
2022-12-05T03:13:21.478Z,3.02
2022-12-05T03:18:19.460Z,3.06
2022-12-05T03:23:16.550Z,3.08
2022-12-05T03:28:17.968Z,3.10
2022-12-05T03:33:17.285Z,3.10
2022-12-05T03:38:15.180Z,3.11
2022-12-05T03:43:15.195Z,3.11
2022-12-05T03:48:14.395Z,3.14
2022-12-05T03:53:19.484Z,3.10
2022-12-05T03:58:21.149Z,3.16
2022-12-05T04:03:15.442Z,3.10
2022-12-05T04:08:10.531Z,3.08
2022-12-05T04:13:19.371Z,3.22
2022-12-05T04:18:16.721Z,3.19
2022-12-05T04:23:11.264Z,3.15
2022-12-05T04:28:14.484Z,3.23
2022-12-05T04:33:15.128Z,3.19
2022-12-05T04:38:14.593Z,3.23
2022-12-05T04:43:07.865Z,3.25
2022-12-05T04:48:02.216Z,3.20
2022-12-05T04:52:59.179Z,3.23
2022-12-05T04:58:02.403Z,3.27
2022-12-05T05:03:01.338Z,3.27
2022-12-05T05:08:03.722Z,3.26
2022-12-05T05:12:55.110Z,3.30
2022-12-05T05:17:46.111Z,3.33
2022-12-05T05:22:40.632Z,3.34
2022-12-05T05:27:34.961Z,2.99
2022-12-05T05:32:25.816Z,3.38
2022-12-05T05:37:17.135Z,3.39
2022-12-05T05:42:09.011Z,3.38
2022-12-05T05:47:04.144Z,3.38
2022-12-05T05:51:55.718Z,3.39
2022-12-05T05:56:48.114Z,3.39
2022-12-05T06:01:39.066Z,3.42
2022-12-05T06:06:36.235Z,3.44
2022-12-05T06:11:29.399Z,3.45
2022-12-05T06:16:21.737Z,3.45
2022-12-05T06:21:16.421Z,3.45
2022-12-05T06:26:14.935Z,3.44
2022-12-05T06:31:12.531Z,3.49
2022-12-05T06:36:09.491Z,3.42
2022-12-05T06:41:01.543Z,3.54
2022-12-05T06:45:58.835Z,3.57
2022-12-05T06:50:54.588Z,3.57
2022-12-05T06:55:45.357Z,3.55
2022-12-05T07:00:49.027Z,3.61
2022-12-05T07:05:45.377Z,3.61
2022-12-05T07:10:36.771Z,3.60
2022-12-05T07:15:31.904Z,3.66
2022-12-05T07:20:23.100Z,3.63
2022-12-05T07:25:17.279Z,3.63
2022-12-05T07:30:12.110Z,3.71
2022-12-05T07:35:03.610Z,3.73
2022-12-05T07:39:58.913Z,3.73
2022-12-05T07:44:53.800Z,3.79
2022-12-05T07:49:47.056Z,3.76
2022-12-05T07:54:38.139Z,3.84
2022-12-05T07:59:29.184Z,3.82
2022-12-05T08:04:25.095Z,3.89
2022-12-05T08:09:17.669Z,3.91
2022-12-05T08:14:10.219Z,3.94
2022-12-05T08:19:08.654Z,3.92
2022-12-05T08:24:04.914Z,3.94
2022-12-05T08:28:58.301Z,4.02
2022-12-05T08:33:55.560Z,4.06
2022-12-05T08:38:51.586Z,4.04
2022-12-05T08:43:46.518Z,4.08
2022-12-05T08:48:38.718Z,4.12
2022-12-05T08:53:30.798Z,4.17
2022-12-05T08:58:22.119Z,4.19
2022-12-05T09:03:35.694Z,4.20
2022-12-05T09:08:33.171Z,4.23
2022-12-05T09:13:24.994Z,4.18
2022-12-05T09:18:21.587Z,4.21
2022-12-05T09:23:16.115Z,4.27
2022-12-05T09:28:13.956Z,4.30
2022-12-05T09:33:06.379Z,4.29
2022-12-05T09:38:00.167Z,4.41
2022-12-05T09:43:05.134Z,4.44
2022-12-05T09:48:10.312Z,4.46
2022-12-05T09:53:28.436Z,4.50
2022-12-05T09:58:31.613Z,4.57
2022-12-05T10:03:32.591Z,4.57
2022-12-05T10:08:36.634Z,4.60
2022-12-05T10:13:49.513Z,4.61
2022-12-05T10:18:46.316Z,4.64
2022-12-05T10:23:58.368Z,4.66
2022-12-05T10:29:00.020Z,4.69
2022-12-05T10:33:55.555Z,4.70
2022-12-05T10:38:50.518Z,4.66
2022-12-05T10:43:47.475Z,4.70
2022-12-05T10:48:41.238Z,4.74
2022-12-05T10:53:39.610Z,4.75
2022-12-05T10:58:33.838Z,4.78
2022-12-05T11:03:33.066Z,4.82
2022-12-05T11:08:56.125Z,4.82
2022-12-05T11:13:56.985Z,4.88
2022-12-05T11:18:50.727Z,4.91
2022-12-05T11:23:43.424Z,4.98
2022-12-05T11:28:40.775Z,5.01
2022-12-05T11:33:36.262Z,5.02
2022-12-05T11:38:33.028Z,5.01
2022-12-05T11:43:48.722Z,5.05
2022-12-05T11:48:55.107Z,5.06
2022-12-05T11:55:02.823Z,5.03
2022-12-05T12:00:07.690Z,5.02
2022-12-05T12:05:21.954Z,5.02
2022-12-05T12:10:26.951Z,5.03
2022-12-05T12:15:36.846Z,5.09
2022-12-05T12:20:59.729Z,5.13
2022-12-05T12:26:07.591Z,5.08
2022-12-05T12:31:14.892Z,5.10
2022-12-05T12:36:20.006Z,5.17
2022-12-05T12:41:27.560Z,5.16
2022-12-05T12:46:43.793Z,5.24
2022-12-05T12:51:38.646Z,5.25
2022-12-05T12:56:44.628Z,5.27
2022-12-05T13:01:43.044Z,5.29
2022-12-05T13:06:49.329Z,5.31
2022-12-05T13:11:44.809Z,5.34
2022-12-05T13:16:46.162Z,5.32
2022-12-05T13:21:43.618Z,5.36
2022-12-05T13:26:37.376Z,5.36
2022-12-05T13:31:41.022Z,5.32
2022-12-05T13:36:44.398Z,5.31
2022-12-05T13:42:02.299Z,5.39
2022-12-05T13:46:54.256Z,5.41
2022-12-05T13:51:48.476Z,5.37
2022-12-05T13:57:04.385Z,5.43
2022-12-05T14:02:01.324Z,5.42
2022-12-05T14:07:01.396Z,5.46
2022-12-05T14:12:22.451Z,5.46
2022-12-05T14:17:17.666Z,5.46
2022-12-05T14:22:24.673Z,5.43
2022-12-05T14:27:22.540Z,5.38
2022-12-05T14:32:31.280Z,5.41
2022-12-05T14:37:30.758Z,5.42
2022-12-05T14:42:40.389Z,5.41
2022-12-05T14:47:38.363Z,5.41
2022-12-05T14:52:34.585Z,5.41
2022-12-05T14:57:29.724Z,5.29
2022-12-05T15:02:27.667Z,5.41
2022-12-05T15:07:25.709Z,5.43
2022-12-05T15:12:23.824Z,5.41
2022-12-05T15:17:21.760Z,5.39
2022-12-05T15:22:21.268Z,5.43
2022-12-05T15:27:19.635Z,5.42
2022-12-05T15:32:22.281Z,5.41
2022-12-05T15:37:19.092Z,5.42
2022-12-05T15:42:24.816Z,5.41
2022-12-05T15:47:31.036Z,5.38
2022-12-05T15:52:34.463Z,5.37
2022-12-05T15:57:37.077Z,5.38
2022-12-05T16:02:39.278Z,5.38
2022-12-05T16:07:39.145Z,5.36
2022-12-05T16:12:39.277Z,5.36
2022-12-05T16:17:32.399Z,5.30
2022-12-05T16:22:29.679Z,5.29
2022-12-05T16:27:25.808Z,5.23
2022-12-05T16:32:27.616Z,5.34
2022-12-05T16:37:27.617Z,5.31
2022-12-05T16:42:28.124Z,5.32
2022-12-05T16:47:28.501Z,5.31
2022-12-05T16:52:21.281Z,5.32
2022-12-05T16:57:15.523Z,5.31
2022-12-05T17:02:14.789Z,5.30
2022-12-05T17:07:10.100Z,5.27
2022-12-05T17:12:07.186Z,5.28
2022-12-05T17:17:03.201Z,5.31
2022-12-05T17:21:57.142Z,5.26
2022-12-05T17:26:56.731Z,5.32
2022-12-05T17:31:50.990Z,5.35
2022-12-05T17:36:43.398Z,5.35
2022-12-05T17:41:35.094Z,5.34
2022-12-05T17:46:30.677Z,5.35
2022-12-05T17:51:26.012Z,5.38
2022-12-05T17:56:19.814Z,5.39
2022-12-05T18:01:15.494Z,5.39
2022-12-05T18:06:10.691Z,5.35
2022-12-05T18:11:01.294Z,5.39
2022-12-05T18:15:52.778Z,5.35
2022-12-05T18:20:44.699Z,5.32
2022-12-05T18:25:38.257Z,5.39
2022-12-05T18:30:29.426Z,5.41
2022-12-05T18:35:40.803Z,5.40
2022-12-05T18:40:32.796Z,5.43
2022-12-05T18:45:26.492Z,5.43
2022-12-05T18:50:17.989Z,5.42
2022-12-05T18:55:17.126Z,5.41
2022-12-05T19:00:16.968Z,5.43
2022-12-05T19:05:11.455Z,5.42
2022-12-05T19:10:04.296Z,5.37
2022-12-05T19:15:01.047Z,5.41
2022-12-05T19:19:54.284Z,5.42
2022-12-05T19:24:50.990Z,5.43
2022-12-05T19:29:43.156Z,5.42
2022-12-05T19:34:34.659Z,5.42
2022-12-05T19:39:30.340Z,5.36
2022-12-05T19:44:26.618Z,5.37
2022-12-05T19:49:26.269Z,5.37
2022-12-05T19:54:22.636Z,5.40
2022-12-05T19:59:17.868Z,5.39
2022-12-05T20:04:14.871Z,5.39
2022-12-05T20:09:11.162Z,5.37
2022-12-05T20:14:04.931Z,5.38
2022-12-05T20:19:01.535Z,5.33
2022-12-05T20:23:59.001Z,5.36
2022-12-05T20:28:50.677Z,5.31
2022-12-05T20:33:42.244Z,5.37
2022-12-05T20:38:35.948Z,5.34
2022-12-05T20:43:36.210Z,5.31
2022-12-05T20:48:29.600Z,5.38
2022-12-05T20:53:22.838Z,5.40
2022-12-05T20:58:14.079Z,5.37
2022-12-05T21:03:15.620Z,5.39
2022-12-05T21:08:08.909Z,5.38
2022-12-05T21:13:01.542Z,5.39
2022-12-05T21:17:53.103Z,5.39
2022-12-05T21:22:47.986Z,5.44
2022-12-05T21:27:40.483Z,5.45
2022-12-05T21:32:35.196Z,5.44
2022-12-05T21:37:27.496Z,5.35
2022-12-05T21:42:21.210Z,5.48
2022-12-05T21:47:12.447Z,5.52
2022-12-05T21:52:06.680Z,5.52
2022-12-05T21:56:57.836Z,5.45
2022-12-05T22:01:54.696Z,5.49
2022-12-05T22:06:46.674Z,5.49
2022-12-05T22:11:37.775Z,5.50
2022-12-05T22:16:32.736Z,5.48
2022-12-05T22:21:27.237Z,5.50
2022-12-05T22:26:20.650Z,5.51
2022-12-05T22:31:19.167Z,5.48
2022-12-05T22:36:12.926Z,5.49
2022-12-05T22:41:08.625Z,5.47
2022-12-05T22:46:00.518Z,5.50
2022-12-05T22:50:53.173Z,5.48
2022-12-05T22:55:43.371Z,5.49
2022-12-05T23:00:38.551Z,5.49
2022-12-05T23:05:31.842Z,5.49
2022-12-05T23:10:26.332Z,5.42
2022-12-05T23:15:18.139Z,5.43
2022-12-05T23:20:12.579Z,5.47
2022-12-05T23:25:05.792Z,5.46
2022-12-05T23:30:02.305Z,5.47
2022-12-05T23:34:53.943Z,5.49
2022-12-05T23:39:48.549Z,5.44
2022-12-05T23:44:46.368Z,5.51
2022-12-05T23:49:38.628Z,5.50
2022-12-05T23:54:32.149Z,5.50
2022-12-05T23:59:27.763Z,5.48
